sensor_id;sensor_type;location;lat;lon;timestamp;pressure;altitude;pressure_sealevel;temperature;humidity
85462;BME280;75865;42.672;23.360;2024-02-15T00:00:00;95510.44;;;5.28;54.04
85462;BME280;75865;42.672;23.360;2024-02-15T00:02:28;95511.19;;;5.28;54.27
85462;BME280;75865;42.672;23.360;2024-02-15T00:04:55;95507.31;;;5.22;53.92
85462;BME280;75865;42.672;23.360;2024-02-15T00:07:23;95519.44;;;5.27;54.29
85462;BME280;75865;42.672;23.360;2024-02-15T00:09:50;95520.53;;;5.26;54.26
85462;BME280;75865;42.672;23.360;2024-02-15T00:12:16;95525.03;;;5.25;53.96
85462;BME280;75865;42.672;23.360;2024-02-15T00:14:43;95513.75;;;5.25;54.26
85462;BME280;75865;42.672;23.360;2024-02-15T00:17:10;95513.28;;;5.19;54.26
85462;BME280;75865;42.672;23.360;2024-02-15T00:19:38;95520.00;;;5.17;53.92
85462;BME280;75865;42.672;23.360;2024-02-15T00:22:09;95520.41;;;5.19;54.45
85462;BME280;75865;42.672;23.360;2024-02-15T00:24:37;95521.53;;;5.18;53.93
85462;BME280;75865;42.672;23.360;2024-02-15T00:27:04;95518.13;;;5.17;53.90
85462;BME280;75865;42.672;23.360;2024-02-15T00:29:31;95523.03;;;5.19;54.18
85462;BME280;75865;42.672;23.360;2024-02-15T00:31:58;95528.34;;;5.22;53.92
85462;BME280;75865;42.672;23.360;2024-02-15T00:34:26;95527.16;;;5.20;53.87
85462;BME280;75865;42.672;23.360;2024-02-15T00:36:53;95523.84;;;5.23;53.86
85462;BME280;75865;42.672;23.360;2024-02-15T00:39:20;95523.84;;;5.23;53.98
85462;BME280;75865;42.672;23.360;2024-02-15T00:41:47;95531.41;;;5.24;54.15
85462;BME280;75865;42.672;23.360;2024-02-15T00:44:15;95535.22;;;5.27;54.11
85462;BME280;75865;42.672;23.360;2024-02-15T00:46:42;95526.91;;;5.25;53.68
85462;BME280;75865;42.672;23.360;2024-02-15T00:49:09;95535.50;;;5.22;53.97
85462;BME280;75865;42.672;23.360;2024-02-15T00:51:36;95534.38;;;5.23;54.01
85462;BME280;75865;42.672;23.360;2024-02-15T00:54:03;95536.66;;;5.24;53.92
85462;BME280;75865;42.672;23.360;2024-02-15T00:56:31;95520.13;;;5.24;53.83
85462;BME280;75865;42.672;23.360;2024-02-15T00:58:59;95531.81;;;5.26;53.99
85462;BME280;75865;42.672;23.360;2024-02-15T01:01:30;95528.00;;;5.24;53.90
85462;BME280;75865;42.672;23.360;2024-02-15T01:03:57;95527.59;;;5.22;53.86
85462;BME280;75865;42.672;23.360;2024-02-15T01:06:24;95527.13;;;5.16;53.82
85462;BME280;75865;42.672;23.360;2024-02-15T01:08:51;95524.53;;;5.20;53.87
85462;BME280;75865;42.672;23.360;2024-02-15T01:11:18;95524.91;;;5.18;53.80
85462;BME280;75865;42.672;23.360;2024-02-15T01:13:45;95520.69;;;5.14;54.02
85462;BME280;75865;42.672;23.360;2024-02-15T01:16:12;95528.44;;;5.06;54.21
85462;BME280;75865;42.672;23.360;2024-02-15T01:18:39;95522.41;;;5.06;54.53
85462;BME280;75865;42.672;23.360;2024-02-15T01:21:06;95522.47;;;5.09;54.12
85462;BME280;75865;42.672;23.360;2024-02-15T01:23:33;95519.03;;;5.05;54.28
85462;BME280;75865;42.672;23.360;2024-02-15T01:26:02;95510.69;;;5.03;53.97
85462;BME280;75865;42.672;23.360;2024-02-15T01:28:29;95516.78;;;5.07;54.36
85462;BME280;75865;42.672;23.360;2024-02-15T01:30:55;95519.84;;;5.09;54.12
85462;BME280;75865;42.672;23.360;2024-02-15T01:33:23;95521.66;;;5.05;54.01
85462;BME280;75865;42.672;23.360;2024-02-15T01:35:49;95529.53;;;5.05;54.10
85462;BME280;75865;42.672;23.360;2024-02-15T01:38:16;95524.28;;;5.05;54.31
85462;BME280;75865;42.672;23.360;2024-02-15T01:40:43;95524.66;;;5.07;54.32
85462;BME280;75865;42.672;23.360;2024-02-15T01:43:10;95515.19;;;5.03;54.41
85462;BME280;75865;42.672;23.360;2024-02-15T01:45:37;95524.66;;;5.07;54.08
85462;BME280;75865;42.672;23.360;2024-02-15T01:48:04;95516.78;;;5.07;54.24
85462;BME280;75865;42.672;23.360;2024-02-15T01:50:32;95519.84;;;5.09;54.36
85462;BME280;75865;42.672;23.360;2024-02-15T01:53:04;95516.09;;;5.11;54.28
85462;BME280;75865;42.672;23.360;2024-02-15T01:55:31;95521.69;;;5.09;54.33
85462;BME280;75865;42.672;23.360;2024-02-15T01:58:01;95519.84;;;5.09;53.78
85462;BME280;75865;42.672;23.360;2024-02-15T02:00:28;95511.19;;;5.09;53.93
85462;BME280;75865;42.672;23.360;2024-02-15T02:02:57;95507.38;;;5.06;54.24
85462;BME280;75865;42.672;23.360;2024-02-15T02:05:30;95520.53;;;5.06;54.00
85462;BME280;75865;42.672;23.360;2024-02-15T02:07:58;95517.50;;;5.04;53.98
85462;BME280;75865;42.672;23.360;2024-02-15T02:10:28;95524.63;;;5.04;54.37
85462;BME280;75865;42.672;23.360;2024-02-15T02:13:00;95534.81;;;5.05;54.19
85462;BME280;75865;42.672;23.360;2024-02-15T02:15:31;95528.44;;;5.06;54.16
85462;BME280;75865;42.672;23.360;2024-02-15T02:18:01;95529.94;;;5.07;54.08
85462;BME280;75865;42.672;23.360;2024-02-15T02:20:28;95527.31;;;5.07;54.18
85462;BME280;75865;42.672;23.360;2024-02-15T02:23:09;95532.94;;;5.06;54.06
85462;BME280;75865;42.672;23.360;2024-02-15T02:25:40;95525.38;;;5.04;54.50
85462;BME280;75865;42.672;23.360;2024-02-15T02:30:54;95543.63;;;4.97;54.17
85462;BME280;75865;42.672;23.360;2024-02-15T02:33:23;95546.59;;;4.96;54.25
85462;BME280;75865;42.672;23.360;2024-02-15T02:35:55;95548.13;;;4.97;54.31
85462;BME280;75865;42.672;23.360;2024-02-15T02:38:24;95543.63;;;4.97;54.46
85462;BME280;75865;42.672;23.360;2024-02-15T02:40:52;95544.75;;;4.96;54.60
85462;BME280;75865;42.672;23.360;2024-02-15T02:43:19;95547.38;;;4.96;54.08
85462;BME280;75865;42.672;23.360;2024-02-15T02:45:46;95543.50;;;4.90;54.47
85462;BME280;75865;42.672;23.360;2024-02-15T02:48:13;95545.69;;;4.88;54.80
85462;BME280;75865;42.672;23.360;2024-02-15T02:50:40;95548.00;;;4.90;54.13
85462;BME280;75865;42.672;23.360;2024-02-15T02:53:07;95543.50;;;4.90;54.57
85462;BME280;75865;42.672;23.360;2024-02-15T02:55:37;95540.44;;;4.88;54.45
85462;BME280;75865;42.672;23.360;2024-02-15T02:58:04;95554.78;;;4.91;54.46
85462;BME280;75865;42.672;23.360;2024-02-15T03:00:32;95550.28;;;4.91;54.45
85462;BME280;75865;42.672;23.360;2024-02-15T03:02:59;95554.78;;;4.91;54.56
85462;BME280;75865;42.672;23.360;2024-02-15T03:05:26;95553.34;;;4.93;54.58
85462;BME280;75865;42.672;23.360;2024-02-15T03:07:53;95551.66;;;4.85;54.34
85462;BME280;75865;42.672;23.360;2024-02-15T03:10:20;95560.28;;;4.86;54.96
85462;BME280;75865;42.672;23.360;2024-02-15T03:12:46;95552.41;;;4.86;55.02
85462;BME280;75865;42.672;23.360;2024-02-15T03:15:15;95558.00;;;4.84;54.87
85462;BME280;75865;42.672;23.360;2024-02-15T03:17:47;95565.91;;;4.84;54.85
85462;BME280;75865;42.672;23.360;2024-02-15T03:20:15;95561.25;;;4.78;55.18
85462;BME280;75865;42.672;23.360;2024-02-15T03:22:59;95559.72;;;4.77;55.17
85462;BME280;75865;42.672;23.360;2024-02-15T03:25:27;95566.44;;;4.74;55.40
85462;BME280;75865;42.672;23.360;2024-02-15T03:27:57;95570.16;;;4.73;55.16
85462;BME280;75865;42.672;23.360;2024-02-15T03:30:25;95565.59;;;4.70;55.27
85462;BME280;75865;42.672;23.360;2024-02-15T03:32:53;95573.84;;;4.68;55.11
85462;BME280;75865;42.672;23.360;2024-02-15T03:35:23;95557.28;;;4.68;55.29
85462;BME280;75865;42.672;23.360;2024-02-15T03:37:51;95568.50;;;4.65;55.38
85462;BME280;75865;42.672;23.360;2024-02-15T03:40:19;95564.00;;;4.65;55.32
85462;BME280;75865;42.672;23.360;2024-02-15T03:42:46;95558.72;;;4.65;55.56
85462;BME280;75865;42.672;23.360;2024-02-15T03:45:13;95563.91;;;4.62;55.45
85462;BME280;75865;42.672;23.360;2024-02-15T03:47:40;95566.81;;;4.57;55.25
85462;BME280;75865;42.672;23.360;2024-02-15T03:50:08;95569.09;;;4.58;55.16
85462;BME280;75865;42.672;23.360;2024-02-15T03:52:41;95561.97;;;4.59;55.31
85462;BME280;75865;42.672;23.360;2024-02-15T03:55:08;95562.38;;;4.61;55.55
85462;BME280;75865;42.672;23.360;2024-02-15T03:57:38;95562.75;;;4.59;55.45
85462;BME280;75865;42.672;23.360;2024-02-15T04:00:07;95556.63;;;4.55;55.45
85462;BME280;75865;42.672;23.360;2024-02-15T04:02:37;95565.97;;;4.53;55.66
85462;BME280;75865;42.672;23.360;2024-02-15T04:05:07;95564.84;;;4.54;55.67
85462;BME280;75865;42.672;23.360;2024-02-15T04:07:35;95566.63;;;4.50;56.00
85462;BME280;75865;42.672;23.360;2024-02-15T04:10:05;95561.81;;;4.52;55.88
85462;BME280;75865;42.672;23.360;2024-02-15T04:12:33;95568.25;;;4.54;56.08
85462;BME280;75865;42.672;23.360;2024-02-15T04:15:00;95567.91;;;4.56;56.04
85462;BME280;75865;42.672;23.360;2024-02-15T04:17:32;95562.56;;;4.52;55.68
85462;BME280;75865;42.672;23.360;2024-02-15T04:20:02;95575.72;;;4.52;55.80
85462;BME280;75865;42.672;23.360;2024-02-15T04:22:30;95574.88;;;4.48;55.67
85462;BME280;75865;42.672;23.360;2024-02-15T04:25:07;95563.50;;;4.44;55.62
85462;BME280;75865;42.672;23.360;2024-02-15T04:27:37;95568.00;;;4.44;55.98
85462;BME280;75865;42.672;23.360;2024-02-15T04:30:04;95567.16;;;4.40;56.09
85462;BME280;75865;42.672;23.360;2024-02-15T04:32:34;95566.72;;;4.38;55.78
85462;BME280;75865;42.672;23.360;2024-02-15T04:35:01;95572.69;;;4.34;56.46
85462;BME280;75865;42.672;23.360;2024-02-15T04:37:29;95565.47;;;4.31;55.87
85462;BME280;75865;42.672;23.360;2024-02-15T04:39:59;95574.28;;;4.39;56.34
85462;BME280;75865;42.672;23.360;2024-02-15T04:42:34;95580.72;;;4.42;55.88
85462;BME280;75865;42.672;23.360;2024-02-15T04:45:01;95587.94;;;4.45;56.15
85462;BME280;75865;42.672;23.360;2024-02-15T04:47:28;95601.41;;;4.43;56.10
85462;BME280;75865;42.672;23.360;2024-02-15T04:49:56;95591.91;;;4.39;55.93
85462;BME280;75865;42.672;23.360;2024-02-15T04:52:23;95588.44;;;4.34;56.31
85462;BME280;75865;42.672;23.360;2024-02-15T04:54:50;95591.06;;;4.34;56.33
85462;BME280;75865;42.672;23.360;2024-02-15T04:57:17;95601.25;;;4.36;56.19
85462;BME280;75865;42.672;23.360;2024-02-15T04:59:44;95601.25;;;4.36;56.41
85462;BME280;75865;42.672;23.360;2024-02-15T05:02:14;95600.81;;;4.34;56.39
85462;BME280;75865;42.672;23.360;2024-02-15T05:04:41;95595.56;;;4.34;56.38
85462;BME280;75865;42.672;23.360;2024-02-15T05:07:09;95607.28;;;4.37;56.26
85462;BME280;75865;42.672;23.360;2024-02-15T05:09:36;95603.13;;;4.35;56.73
85462;BME280;75865;42.672;23.360;2024-02-15T05:12:04;95615.16;;;4.37;56.18
85462;BME280;75865;42.672;23.360;2024-02-15T05:14:31;95610.63;;;4.37;56.21
85462;BME280;75865;42.672;23.360;2024-02-15T05:16:59;95610.63;;;4.37;56.92
85462;BME280;75865;42.672;23.360;2024-02-15T05:19:27;95609.91;;;4.37;56.45
85462;BME280;75865;42.672;23.360;2024-02-15T05:21:54;95620.81;;;4.39;56.63
85462;BME280;75865;42.672;23.360;2024-02-15T05:24:22;95612.94;;;4.39;56.68
85462;BME280;75865;42.672;23.360;2024-02-15T05:26:49;95621.50;;;4.35;56.26
85462;BME280;75865;42.672;23.360;2024-02-15T05:29:17;95619.97;;;4.34;56.57
85462;BME280;75865;42.672;23.360;2024-02-15T05:31:43;95622.94;;;4.33;56.99
85462;BME280;75865;42.672;23.360;2024-02-15T05:34:11;95623.63;;;4.30;56.70
85462;BME280;75865;42.672;23.360;2024-02-15T05:36:39;95626.56;;;4.28;56.88
85462;BME280;75865;42.672;23.360;2024-02-15T05:39:06;95631.41;;;4.26;57.04
85462;BME280;75865;42.672;23.360;2024-02-15T05:41:34;95630.63;;;4.26;56.97
85462;BME280;75865;42.672;23.360;2024-02-15T05:44:02;95635.06;;;4.22;57.02
85462;BME280;75865;42.672;23.360;2024-02-15T05:46:33;95633.19;;;4.22;56.95
85462;BME280;75865;42.672;23.360;2024-02-15T05:49:04;95635.06;;;4.22;57.08
85462;BME280;75865;42.672;23.360;2024-02-15T05:51:32;95638.88;;;4.24;56.94
85462;BME280;75865;42.672;23.360;2024-02-15T05:54:00;95639.28;;;4.26;56.91
85462;BME280;75865;42.672;23.360;2024-02-15T05:56:27;95648.34;;;4.29;56.73
85462;BME280;75865;42.672;23.360;2024-02-15T05:58:55;95643.88;;;4.29;56.77
85462;BME280;75865;42.672;23.360;2024-02-15T06:01:23;95642.44;;;4.32;56.73
85462;BME280;75865;42.672;23.360;2024-02-15T06:03:51;95633.78;;;4.31;56.82
85462;BME280;75865;42.672;23.360;2024-02-15T06:06:21;95651.09;;;4.32;56.72
85462;BME280;75865;42.672;23.360;2024-02-15T06:08:49;95645.50;;;4.34;56.36
85462;BME280;75865;42.672;23.360;2024-02-15T06:11:19;95657.88;;;4.33;56.65
85462;BME280;75865;42.672;23.360;2024-02-15T06:13:47;95663.13;;;4.33;56.37
85462;BME280;75865;42.672;23.360;2024-02-15T06:16:14;95664.66;;;4.34;56.49
85462;BME280;75865;42.672;23.360;2024-02-15T06:18:41;95670.75;;;4.39;56.50
85462;BME280;75865;42.672;23.360;2024-02-15T06:21:08;95670.50;;;4.44;56.74
85462;BME280;75865;42.672;23.360;2024-02-15T06:23:35;95675.50;;;4.49;56.18
85462;BME280;75865;42.672;23.360;2024-02-15T06:26:02;95679.66;;;4.50;56.12
85462;BME280;75865;42.672;23.360;2024-02-15T06:28:29;95675.50;;;4.49;56.41
85462;BME280;75865;42.672;23.360;2024-02-15T06:31:14;95681.13;;;4.47;56.55
85462;BME280;75865;42.672;23.360;2024-02-15T06:34:00;95682.72;;;4.52;56.39
85462;BME280;75865;42.672;23.360;2024-02-15T06:36:49;95688.84;;;4.56;56.35
85462;BME280;75865;42.672;23.360;2024-02-15T06:39:35;95692.31;;;4.60;56.11
85462;BME280;75865;42.672;23.360;2024-02-15T06:42:06;95691.56;;;4.59;55.87
85462;BME280;75865;42.672;23.360;2024-02-15T06:44:33;95690.09;;;4.62;56.10
85462;BME280;75865;42.672;23.360;2024-02-15T06:47:00;95694.25;;;4.63;55.94
85462;BME280;75865;42.672;23.360;2024-02-15T06:49:27;95701.03;;;4.64;55.39
85462;BME280;75865;42.672;23.360;2024-02-15T06:51:55;95689.69;;;4.60;55.82
85462;BME280;75865;42.672;23.360;2024-02-15T06:54:21;95692.31;;;4.60;55.93
85462;BME280;75865;42.672;23.360;2024-02-15T06:56:49;95692.72;;;4.62;55.87
85462;BME280;75865;42.672;23.360;2024-02-15T06:59:18;95688.00;;;4.67;56.02
85462;BME280;75865;42.672;23.360;2024-02-15T07:01:45;95688.84;;;4.71;56.06
85462;BME280;75865;42.672;23.360;2024-02-15T07:04:13;95686.97;;;4.72;55.83
85462;BME280;75865;42.672;23.360;2024-02-15T07:06:40;95676.44;;;4.72;55.87
85462;BME280;75865;42.672;23.360;2024-02-15T07:09:11;95683.94;;;4.70;55.57
85462;BME280;75865;42.672;23.360;2024-02-15T07:11:38;95673.47;;;4.73;55.64
85462;BME280;75865;42.672;23.360;2024-02-15T07:14:05;95676.97;;;4.78;56.09
85462;BME280;75865;42.672;23.360;2024-02-15T07:16:34;95684.94;;;4.81;55.52
85462;BME280;75865;42.672;23.360;2024-02-15T07:19:01;95672.91;;;4.80;55.38
85462;BME280;75865;42.672;23.360;2024-02-15T07:21:28;95686.03;;;4.80;55.38
85462;BME280;75865;42.672;23.360;2024-02-15T07:23:55;95684.94;;;4.81;55.21
85462;BME280;75865;42.672;23.360;2024-02-15T07:26:25;95678.91;;;4.81;55.41
85462;BME280;75865;42.672;23.360;2024-02-15T07:28:53;95681.56;;;4.81;55.20
85462;BME280;75865;42.672;23.360;2024-02-15T07:31:20;95681.56;;;4.81;55.25
85462;BME280;75865;42.672;23.360;2024-02-15T07:33:50;95688.78;;;4.84;55.32
85462;BME280;75865;42.672;23.360;2024-02-15T07:36:21;95675.63;;;4.84;55.10
85462;BME280;75865;42.672;23.360;2024-02-15T07:38:52;95674.84;;;4.83;55.04
85462;BME280;75865;42.672;23.360;2024-02-15T07:41:23;95673.91;;;4.91;55.26
85462;BME280;75865;42.672;23.360;2024-02-15T07:43:51;95678.22;;;4.99;55.24
85462;BME280;75865;42.672;23.360;2024-02-15T07:46:22;95687.41;;;5.05;54.61
85462;BME280;75865;42.672;23.360;2024-02-15T07:48:50;95682.19;;;5.09;54.60
85462;BME280;75865;42.672;23.360;2024-02-15T07:51:21;95665.81;;;5.16;54.92
85462;BME280;75865;42.672;23.360;2024-02-15T07:53:48;95684.81;;;5.25;54.64
85462;BME280;75865;42.672;23.360;2024-02-15T07:56:16;95683.50;;;5.34;54.65
85462;BME280;75865;42.672;23.360;2024-02-15T07:58:45;95677.66;;;5.41;54.28
85462;BME280;75865;42.672;23.360;2024-02-15T08:01:19;95666.59;;;5.51;54.32
85462;BME280;75865;42.672;23.360;2024-02-15T08:03:52;95669.00;;;5.60;53.57
85462;BME280;75865;42.672;23.360;2024-02-15T08:06:21;95673.69;;;5.66;53.14
85462;BME280;75865;42.672;23.360;2024-02-15T08:08:52;95670.88;;;5.78;52.88
85462;BME280;75865;42.672;23.360;2024-02-15T08:11:19;95668.81;;;5.88;52.71
85462;BME280;75865;42.672;23.360;2024-02-15T08:13:50;95661.84;;;5.95;52.09
85462;BME280;75865;42.672;23.360;2024-02-15T08:16:21;95663.09;;;6.01;52.11
85462;BME280;75865;42.672;23.360;2024-02-15T08:18:54;95666.28;;;6.10;51.80
85462;BME280;75865;42.672;23.360;2024-02-15T08:21:28;95660.34;;;6.17;51.59
85462;BME280;75865;42.672;23.360;2024-02-15T08:23:57;95666.13;;;6.23;51.38
85462;BME280;75865;42.672;23.360;2024-02-15T08:26:25;95658.31;;;6.30;51.26
85462;BME280;75865;42.672;23.360;2024-02-15T08:28:52;95653.25;;;6.40;51.53
85462;BME280;75865;42.672;23.360;2024-02-15T08:31:20;95660.97;;;6.52;51.25
85462;BME280;75865;42.672;23.360;2024-02-15T08:33:47;95663.84;;;6.67;51.17
85462;BME280;75865;42.672;23.360;2024-02-15T08:36:14;95653.88;;;6.79;50.63
85462;BME280;75865;42.672;23.360;2024-02-15T08:38:41;95664.69;;;6.97;50.25
85462;BME280;75865;42.672;23.360;2024-02-15T08:41:08;95669.44;;;7.11;49.70
85462;BME280;75865;42.672;23.360;2024-02-15T08:43:37;95660.56;;;7.22;49.28
85462;BME280;75865;42.672;23.360;2024-02-15T08:46:06;95659.03;;;7.48;49.12
85462;BME280;75865;42.672;23.360;2024-02-15T08:48:34;95660.34;;;7.94;48.13
85462;BME280;75865;42.672;23.360;2024-02-15T08:51:02;95663.44;;;8.33;47.67
85462;BME280;75865;42.672;23.360;2024-02-15T08:53:30;95666.47;;;8.73;46.32
85462;BME280;75865;42.672;23.360;2024-02-15T08:55:58;95667.28;;;9.35;45.71
85462;BME280;75865;42.672;23.360;2024-02-15T08:58:25;95663.16;;;10.21;43.95
85462;BME280;75865;42.672;23.360;2024-02-15T09:00:53;95657.19;;;11.02;41.67
85462;BME280;75865;42.672;23.360;2024-02-15T09:03:21;95659.31;;;11.88;40.42
85462;BME280;75865;42.672;23.360;2024-02-15T09:05:48;95655.31;;;12.91;38.83
85462;BME280;75865;42.672;23.360;2024-02-15T09:08:15;95670.81;;;13.85;36.44
85462;BME280;75865;42.672;23.360;2024-02-15T09:10:48;95665.06;;;14.78;35.00
85462;BME280;75865;42.672;23.360;2024-02-15T09:13:15;95657.00;;;15.51;33.32
85462;BME280;75865;42.672;23.360;2024-02-15T09:15:42;95658.31;;;16.22;32.44
85462;BME280;75865;42.672;23.360;2024-02-15T09:18:10;95658.22;;;16.98;31.09
85462;BME280;75865;42.672;23.360;2024-02-15T09:20:37;95660.34;;;17.68;29.66
85462;BME280;75865;42.672;23.360;2024-02-15T09:23:07;95652.66;;;18.37;29.32
85462;BME280;75865;42.672;23.360;2024-02-15T09:25:39;95658.91;;;19.23;28.40
85462;BME280;75865;42.672;23.360;2024-02-15T09:28:06;95662.41;;;20.01;27.25
85462;BME280;75865;42.672;23.360;2024-02-15T09:30:32;95648.72;;;20.70;26.38
85462;BME280;75865;42.672;23.360;2024-02-15T09:33:02;95650.72;;;21.46;25.47
85462;BME280;75865;42.672;23.360;2024-02-15T09:35:32;95642.56;;;22.19;24.36
85462;BME280;75865;42.672;23.360;2024-02-15T09:37:59;95655.47;;;22.85;23.89
85462;BME280;75865;42.672;23.360;2024-02-15T09:40:26;95644.59;;;23.41;22.75
85462;BME280;75865;42.672;23.360;2024-02-15T09:42:55;95652.25;;;23.91;21.92
85462;BME280;75865;42.672;23.360;2024-02-15T09:45:22;95653.13;;;24.41;21.47
85462;BME280;75865;42.672;23.360;2024-02-15T09:47:51;95643.25;;;24.88;21.44
85462;BME280;75865;42.672;23.360;2024-02-15T09:50:22;95648.25;;;25.09;21.09
85462;BME280;75865;42.672;23.360;2024-02-15T09:52:52;95653.94;;;25.46;20.22
85462;BME280;75865;42.672;23.360;2024-02-15T09:55:20;95645.44;;;25.59;20.26
85462;BME280;75865;42.672;23.360;2024-02-15T09:57:50;95648.91;;;26.06;19.53
85462;BME280;75865;42.672;23.360;2024-02-15T10:00:17;95638.84;;;26.38;19.02
85462;BME280;75865;42.672;23.360;2024-02-15T10:02:47;95640.03;;;26.63;18.72
85462;BME280;75865;42.672;23.360;2024-02-15T10:05:16;95630.03;;;26.85;18.37
85462;BME280;75865;42.672;23.360;2024-02-15T10:07:44;95626.19;;;27.03;18.11
85462;BME280;75865;42.672;23.360;2024-02-15T10:12:42;95636.44;;;27.19;17.96
85462;BME280;75865;42.672;23.360;2024-02-15T10:15:38;95633.50;;;27.28;17.85
85462;BME280;75865;42.672;23.360;2024-02-15T10:18:08;95623.38;;;27.35;17.41
85462;BME280;75865;42.672;23.360;2024-02-15T10:20:38;95615.69;;;27.39;17.62
85462;BME280;75865;42.672;23.360;2024-02-15T10:23:08;95619.47;;;27.52;17.51
85462;BME280;75865;42.672;23.360;2024-02-15T10:25:40;95616.16;;;27.96;17.41
85462;BME280;75865;42.672;23.360;2024-02-15T10:28:09;95609.25;;;28.34;17.05
85462;BME280;75865;42.672;23.360;2024-02-15T10:30:40;95601.59;;;28.55;17.15
85462;BME280;75865;42.672;23.360;2024-02-15T10:33:21;95603.25;;;28.92;16.52
85462;BME280;75865;42.672;23.360;2024-02-15T10:36:08;95595.56;;;28.96;16.30
85462;BME280;75865;42.672;23.360;2024-02-15T10:38:35;95592.34;;;28.97;16.40
85462;BME280;75865;42.672;23.360;2024-02-15T10:41:04;95587.88;;;28.72;16.44
85462;BME280;75865;42.672;23.360;2024-02-15T10:43:33;95581.19;;;28.67;16.36
85462;BME280;75865;42.672;23.360;2024-02-15T10:46:00;95588.84;;;28.97;16.49
85462;BME280;75865;42.672;23.360;2024-02-15T10:48:27;95586.78;;;29.25;16.10
85462;BME280;75865;42.672;23.360;2024-02-15T10:50:59;95578.03;;;29.43;15.74
85462;BME280;75865;42.672;23.360;2024-02-15T10:53:28;95582.44;;;29.52;15.65
85462;BME280;75865;42.672;23.360;2024-02-15T10:58:33;95574.59;;;29.78;15.74
85462;BME280;75865;42.672;23.360;2024-02-15T11:01:06;95575.81;;;29.83;15.28
85462;BME280;75865;42.672;23.360;2024-02-15T11:03:37;95572.84;;;29.81;15.37
85462;BME280;75865;42.672;23.360;2024-02-15T11:06:09;95567.59;;;29.36;15.41
85462;BME280;75865;42.672;23.360;2024-02-15T11:08:38;95552.38;;;28.72;15.74
85462;BME280;75865;42.672;23.360;2024-02-15T11:11:06;95560.88;;;28.35;16.29
85462;BME280;75865;42.672;23.360;2024-02-15T11:13:33;95562.59;;;28.49;16.22
85462;BME280;75865;42.672;23.360;2024-02-15T11:16:00;95559.84;;;28.60;16.04
85462;BME280;75865;42.672;23.360;2024-02-15T11:18:48;95565.28;;;28.83;15.88
85462;BME280;75865;42.672;23.360;2024-02-15T11:21:16;95552.31;;;29.00;15.98
85462;BME280;75865;42.672;23.360;2024-02-15T11:23:44;95551.84;;;28.96;15.71
85462;BME280;75865;42.672;23.360;2024-02-15T11:26:43;95553.50;;;29.16;15.67
85462;BME280;75865;42.672;23.360;2024-02-15T11:35:07;95547.22;;;29.32;15.84
85462;BME280;75865;42.672;23.360;2024-02-15T11:37:59;95545.97;;;29.79;15.49
85462;BME280;75865;42.672;23.360;2024-02-15T11:43:09;95544.47;;;29.43;15.56
85462;BME280;75865;42.672;23.360;2024-02-15T11:45:37;95542.22;;;29.47;15.74
85462;BME280;75865;42.672;23.360;2024-02-15T11:48:09;95549.34;;;29.61;15.53
85462;BME280;75865;42.672;23.360;2024-02-15T11:50:39;95543.59;;;29.65;15.38
85462;BME280;75865;42.672;23.360;2024-02-15T11:53:07;95544.09;;;29.63;15.75
85462;BME280;75865;42.672;23.360;2024-02-15T11:55:39;95536.91;;;30.01;15.41
85462;BME280;75865;42.672;23.360;2024-02-15T11:58:08;95526.81;;;30.21;15.37
85462;BME280;75865;42.672;23.360;2024-02-15T12:00:37;95527.63;;;30.40;15.02
85462;BME280;75865;42.672;23.360;2024-02-15T12:03:25;95530.72;;;30.25;14.84
85462;BME280;75865;42.672;23.360;2024-02-15T12:06:28;95520.91;;;30.35;15.44
85462;BME280;75865;42.672;23.360;2024-02-15T12:09:18;95523.19;;;30.61;14.70
85462;BME280;75865;42.672;23.360;2024-02-15T12:12:10;95522.03;;;30.51;15.05
85462;BME280;75865;42.672;23.360;2024-02-15T12:15:24;95514.16;;;30.42;14.83
85462;BME280;75865;42.672;23.360;2024-02-15T12:18:18;95514.69;;;30.35;15.23
85462;BME280;75865;42.672;23.360;2024-02-15T12:21:04;95508.16;;;30.43;15.20
85462;BME280;75865;42.672;23.360;2024-02-15T12:23:32;95522.88;;;30.40;15.06
85462;BME280;75865;42.672;23.360;2024-02-15T12:26:02;95514.00;;;29.99;15.25
85462;BME280;75865;42.672;23.360;2024-02-15T12:28:31;95511.94;;;29.28;15.54
85462;BME280;75865;42.672;23.360;2024-02-15T12:31:00;95508.00;;;28.21;16.25
85462;BME280;75865;42.672;23.360;2024-02-15T12:33:28;95497.44;;;27.14;16.77
85462;BME280;75865;42.672;23.360;2024-02-15T12:36:05;95499.41;;;25.91;17.89
85462;BME280;75865;42.672;23.360;2024-02-15T12:38:32;95497.50;;;24.99;18.48
85462;BME280;75865;42.672;23.360;2024-02-15T12:41:23;95496.25;;;24.25;19.36
85462;BME280;75865;42.672;23.360;2024-02-15T12:43:53;95496.63;;;23.44;20.27
85462;BME280;75865;42.672;23.360;2024-02-15T12:46:20;95485.28;;;22.54;20.97
85462;BME280;75865;42.672;23.360;2024-02-15T12:48:46;95476.91;;;21.68;21.99
85462;BME280;75865;42.672;23.360;2024-02-15T12:51:14;95481.03;;;20.99;22.76
85462;BME280;75865;42.672;23.360;2024-02-15T12:53:41;95474.25;;;20.49;23.21
85462;BME280;75865;42.672;23.360;2024-02-15T12:56:08;95485.97;;;20.15;23.63
85462;BME280;75865;42.672;23.360;2024-02-15T12:58:40;95476.81;;;19.51;24.33
85462;BME280;75865;42.672;23.360;2024-02-15T13:01:09;95472.06;;;19.11;24.73
85462;BME280;75865;42.672;23.360;2024-02-15T13:03:39;95471.47;;;18.72;25.60
85462;BME280;75865;42.672;23.360;2024-02-15T13:06:06;95468.81;;;18.34;25.89
85462;BME280;75865;42.672;23.360;2024-02-15T13:08:34;95465.00;;;17.97;26.33
85462;BME280;75865;42.672;23.360;2024-02-15T13:11:02;95468.72;;;17.62;27.00
85462;BME280;75865;42.672;23.360;2024-02-15T13:13:30;95461.47;;;17.21;27.98
85462;BME280;75865;42.672;23.360;2024-02-15T13:15:57;95471.56;;;17.01;28.11
85462;BME280;75865;42.672;23.360;2024-02-15T13:18:24;95474.81;;;16.79;28.56
85462;BME280;75865;42.672;23.360;2024-02-15T13:20:52;95459.66;;;16.56;28.80
85462;BME280;75865;42.672;23.360;2024-02-15T13:23:20;95456.84;;;16.47;29.26
85462;BME280;75865;42.672;23.360;2024-02-15T13:25:52;95457.19;;;16.17;29.14